Time;durP1;ratioP1;P1;durP2;ratioP2;P2;SDS_P1;SDS_P2;PMS_P1;PMS_P2;Temp;Humidity;BMP_temperature;BMP_pressure;BME280_temperature;BME280_humidity;BME280_pressure;Samples;Min_cycle;Max_cycle;Signal;HPM_P1;HPM_P2
2023/02/10 00:02:10;;;;;;;13.27;6.90;;;;;;;;;;10357441;28;20667;-57
2023/02/10 00:07:11;;;;;;;11.52;6.47;;;;;;;;;;10358791;28;20446;-57
2023/02/10 00:12:12;;;;;;;8.88;6.28;;;;;;;;;;10368776;28;20354;-56
2023/02/10 00:17:14;;;;;;;9.63;6.35;;;;;;;;;;10363717;28;20030;-57
2023/02/10 00:22:15;;;;;;;12.18;6.78;;;;;;;;;;10362536;28;20022;-57
2023/02/10 00:27:22;;;;;;;10.85;6.63;;;;;;;;;;10368255;28;20413;-57
2023/02/10 00:32:23;;;;;;;8.98;6.43;;;;;;;;;;10367858;28;20056;-57
2023/02/10 00:37:23;;;;;;;11.10;6.35;;;;;;;;;;10368028;28;20064;-57
2023/02/10 00:42:24;;;;;;;10.55;5.90;;;;;;;;;;10367551;28;20425;-58
2023/02/10 00:47:25;;;;;;;13.50;6.75;;;;;;;;;;10368668;28;20033;-57
2023/02/10 00:52:26;;;;;;;8.18;6.00;;;;;;;;;;10367409;28;20029;-57
2023/02/10 00:57:27;;;;;;;8.35;6.05;;;;;;;;;;10367564;28;20071;-60
2023/02/10 01:02:27;;;;;;;12.27;6.15;;;;;;;;;;10364162;28;20022;-57
2023/02/10 01:07:29;;;;;;;11.93;6.20;;;;;;;;;;10358907;28;20385;-57
2023/02/10 01:12:29;;;;;;;9.30;5.68;;;;;;;;;;10366996;28;20036;-57
2023/02/10 01:17:30;;;;;;;9.23;6.10;;;;;;;;;;10367330;28;20045;-57
2023/02/10 01:22:35;;;;;;;10.60;6.00;;;;;;;;;;10366571;28;20472;-57
2023/02/10 01:27:35;;;;;;;8.07;5.55;;;;;;;;;;10366368;28;20485;-57
2023/02/10 01:32:36;;;;;;;8.60;5.75;;;;;;;;;;10366337;28;20029;-56
2023/02/10 01:37:37;;;;;;;8.10;5.82;;;;;;;;;;10366212;28;20046;-57
2023/02/10 01:42:40;;;;;;;8.63;5.40;;;;;;;;;;10354863;28;20062;-55
2023/02/10 01:47:42;;;;;;;9.70;6.18;;;;;;;;;;10370780;28;20079;-55
2023/02/10 01:52:44;;;;;;;7.70;5.97;;;;;;;;;;10372745;28;20366;-56
2023/02/10 01:57:46;;;;;;;8.43;5.80;;;;;;;;;;10373843;28;20042;-57
2023/02/10 02:02:48;;;;;;;7.60;5.65;;;;;;;;;;10366460;28;20471;-56
2023/02/10 02:07:49;;;;;;;7.57;5.97;;;;;;;;;;10366944;28;20049;-58
2023/02/10 02:12:58;;;;;;;6.85;5.38;;;;;;;;;;10373205;28;20021;-58
2023/02/10 02:18:15;;;;;;;;;;;;;;;;;;10372813;28;20617;-58
2023/02/10 02:23:28;;;;;;;6.78;5.43;;;;;;;;;;10368185;28;19921;-57
2023/02/10 02:28:48;;;;;;;7.57;5.47;;;;;;;;;;10371755;28;20103;-58
2023/02/10 02:33:54;;;;;;;7.03;5.43;;;;;;;;;;10364744;28;20030;-58
2023/02/10 02:39:00;;;;;;;8.75;5.75;;;;;;;;;;10358331;28;20454;-58
2023/02/10 02:44:02;;;;;;;9.00;5.80;;;;;;;;;;10372038;28;20072;-58
2023/02/10 02:49:13;;;;;;;12.18;6.10;;;;;;;;;;10370866;28;20253;-58
2023/02/10 02:54:25;;;;;;;8.32;5.95;;;;;;;;;;10371283;28;20030;-57
2023/02/10 02:59:41;;;;;;;8.63;5.45;;;;;;;;;;10371727;28;20034;-59
2023/02/10 03:04:43;;;;;;;9.02;5.40;;;;;;;;;;10367708;28;20029;-59
2023/02/10 03:09:44;;;;;;;8.32;5.20;;;;;;;;;;10370997;28;20442;-59
2023/02/10 03:14:44;;;;;;;8.15;6.13;;;;;;;;;;10363011;28;20022;-59
2023/02/10 03:19:45;;;;;;;8.93;5.82;;;;;;;;;;10370472;28;20468;-58
2023/02/10 03:24:45;;;;;;;8.48;5.57;;;;;;;;;;10370670;28;20022;-59
2023/02/10 03:29:48;;;;;;;9.65;5.65;;;;;;;;;;10370421;28;20092;-59
2023/02/10 03:34:49;;;;;;;6.95;5.13;;;;;;;;;;10369959;28;20030;-59
2023/02/10 03:39:49;;;;;;;6.32;5.28;;;;;;;;;;10369644;28;20042;-59
2023/02/10 03:44:50;;;;;;;9.90;5.35;;;;;;;;;;10370179;28;20029;-58
2023/02/10 03:49:50;;;;;;;7.40;5.18;;;;;;;;;;10370125;28;20028;-58
2023/02/10 03:54:51;;;;;;;8.15;5.22;;;;;;;;;;10369248;28;20033;-57
2023/02/10 03:59:51;;;;;;;7.28;5.40;;;;;;;;;;10369216;28;20076;-58
2023/02/10 04:04:52;;;;;;;7.80;4.93;;;;;;;;;;10342685;28;20041;-57
2023/02/10 04:09:52;;;;;;;9.85;5.38;;;;;;;;;;10362976;28;20034;-57
2023/02/10 04:14:53;;;;;;;8.15;5.45;;;;;;;;;;10368434;28;20030;-57
2023/02/10 04:19:54;;;;;;;11.60;5.15;;;;;;;;;;10368874;28;20153;-56
2023/02/10 04:24:54;;;;;;;6.93;5.20;;;;;;;;;;10368199;28;20022;-58
2023/02/10 04:29:55;;;;;;;6.78;5.22;;;;;;;;;;10367949;28;20029;-58
2023/02/10 04:34:55;;;;;;;9.70;5.88;;;;;;;;;;10363487;28;20030;-58
2023/02/10 04:39:56;;;;;;;7.82;5.07;;;;;;;;;;10360227;28;20080;-58
2023/02/10 04:44:58;;;;;;;6.53;5.30;;;;;;;;;;10367740;28;20072;-57
2023/02/10 04:49:59;;;;;;;6.60;4.80;;;;;;;;;;10367654;28;20504;-57
2023/02/10 04:54:59;;;;;;;8.23;5.47;;;;;;;;;;10367212;28;20029;-58
2023/02/10 05:00:00;;;;;;;7.80;5.57;;;;;;;;;;10367365;28;20033;-57
2023/02/10 05:05:01;;;;;;;7.05;5.05;;;;;;;;;;10367095;28;20030;-57
2023/02/10 05:10:01;;;;;;;6.97;4.82;;;;;;;;;;10366411;28;20034;-58
2023/02/10 05:15:03;;;;;;;6.15;5.15;;;;;;;;;;10367039;28;20033;-58
2023/02/10 05:20:04;;;;;;;7.03;4.90;;;;;;;;;;10366580;28;20030;-58
2023/02/10 05:25:06;;;;;;;6.28;5.30;;;;;;;;;;10366929;28;20026;-58
2023/02/10 05:30:09;;;;;;;6.47;5.47;;;;;;;;;;10365240;28;20022;-57
2023/02/10 05:35:10;;;;;;;7.05;5.43;;;;;;;;;;10366337;28;20458;-56
2023/02/10 05:40:10;;;;;;;6.10;4.95;;;;;;;;;;10365856;28;20437;-57
2023/02/10 05:45:11;;;;;;;9.93;5.53;;;;;;;;;;10365985;28;20084;-57
2023/02/10 05:50:12;;;;;;;6.47;4.70;;;;;;;;;;10366099;28;20018;-58
2023/02/10 05:55:12;;;;;;;7.13;4.47;;;;;;;;;;10365345;28;20034;-58
2023/02/10 06:00:14;;;;;;;8.07;4.70;;;;;;;;;;10364828;28;20037;-58
2023/02/10 06:05:14;;;;;;;7.60;5.43;;;;;;;;;;10347188;28;20062;-57
2023/02/10 06:10:15;;;;;;;6.55;4.90;;;;;;;;;;10337596;28;20442;-58
2023/02/10 06:15:16;;;;;;;6.03;4.80;;;;;;;;;;10342561;28;20026;-58
2023/02/10 06:20:16;;;;;;;7.68;4.93;;;;;;;;;;10348102;28;20042;-58
2023/02/10 06:25:17;;;;;;;8.88;4.60;;;;;;;;;;10357378;28;20474;-58
2023/02/10 06:30:17;;;;;;;13.60;5.57;;;;;;;;;;10363133;28;20026;-57
2023/02/10 06:35:18;;;;;;;8.35;5.47;;;;;;;;;;10362400;28;20181;-58
2023/02/10 06:40:19;;;;;;;9.30;6.35;;;;;;;;;;10362321;28;20066;-58
2023/02/10 06:45:20;;;;;;;14.43;7.20;;;;;;;;;;10364304;28;20299;-56
2023/02/10 06:50:21;;;;;;;11.93;7.18;;;;;;;;;;10367357;28;20038;-58
2023/02/10 06:55:22;;;;;;;9.43;7.15;;;;;;;;;;10358517;28;20042;-58
2023/02/10 07:00:22;;;;;;;19.73;7.30;;;;;;;;;;10359709;28;20029;-59
2023/02/10 07:05:23;;;;;;;19.08;7.53;;;;;;;;;;10358484;28;20022;-57
2023/02/10 07:10:24;;;;;;;20.42;7.10;;;;;;;;;;10346802;28;20552;-58
2023/02/10 07:15:25;;;;;;;11.27;7.05;;;;;;;;;;10361569;28;20489;-57
2023/02/10 07:20:26;;;;;;;18.33;6.80;;;;;;;;;;10361306;28;20378;-58
2023/02/10 07:25:26;;;;;;;25.63;7.05;;;;;;;;;;10361589;28;20034;-57
2023/02/10 07:30:27;;;;;;;20.08;6.90;;;;;;;;;;10364453;28;20025;-59
2023/02/10 07:35:27;;;;;;;16.33;7.10;;;;;;;;;;10366069;28;20504;-59
2023/02/10 07:40:29;;;;;;;9.05;6.10;;;;;;;;;;10365976;28;20112;-57
2023/02/10 07:45:30;;;;;;;10.52;6.57;;;;;;;;;;10369135;28;20507;-57
2023/02/10 07:50:31;;;;;;;12.00;5.90;;;;;;;;;;10369261;28;20029;-57
2023/02/10 07:55:32;;;;;;;12.23;6.40;;;;;;;;;;10369365;28;20478;-57
2023/02/10 08:00:33;;;;;;;10.95;5.75;;;;;;;;;;10369191;28;20096;-57
2023/02/10 08:05:35;;;;;;;13.60;6.35;;;;;;;;;;10369305;28;20041;-57
2023/02/10 08:10:39;;;;;;;17.50;6.15;;;;;;;;;;10368393;28;20040;-57
2023/02/10 08:15:40;;;;;;;11.45;6.00;;;;;;;;;;10368640;28;20034;-58
2023/02/10 08:20:41;;;;;;;10.20;6.25;;;;;;;;;;10368599;28;20421;-57
2023/02/10 08:25:42;;;;;;;12.05;6.40;;;;;;;;;;10368044;28;20080;-57
2023/02/10 08:30:42;;;;;;;9.70;6.05;;;;;;;;;;10368174;28;20036;-58
2023/02/10 08:35:43;;;;;;;14.98;6.60;;;;;;;;;;10367696;28;20228;-57
2023/02/10 08:40:43;;;;;;;11.82;6.07;;;;;;;;;;10367797;28;20092;-57
2023/02/10 08:45:44;;;;;;;11.10;6.20;;;;;;;;;;10367285;28;20018;-58
2023/02/10 08:50:45;;;;;;;12.93;6.25;;;;;;;;;;10367119;28;20030;-58
2023/02/10 08:55:59;;;;;;;10.00;6.13;;;;;;;;;;10366520;28;20026;-57
2023/02/10 09:01:01;;;;;;;9.35;5.68;;;;;;;;;;10367190;28;20061;-58
2023/02/10 09:06:01;;;;;;;10.85;6.03;;;;;;;;;;10367631;28;20026;-57
2023/02/10 09:11:05;;;;;;;11.45;6.03;;;;;;;;;;10366738;28;20029;-57
2023/02/10 09:16:06;;;;;;;8.10;5.78;;;;;;;;;;10364083;28;20022;-57
2023/02/10 09:21:08;;;;;;;12.88;5.82;;;;;;;;;;10366530;28;20033;-57
2023/02/10 09:26:09;;;;;;;8.93;5.85;;;;;;;;;;10366330;28;20034;-57
2023/02/10 09:31:13;;;;;;;9.40;6.13;;;;;;;;;;10364973;28;20113;-57
2023/02/10 09:36:17;;;;;;;9.57;5.78;;;;;;;;;;10366062;28;20085;-57
2023/02/10 09:41:32;;;;;;;9.55;6.22;;;;;;;;;;10366152;28;20030;-57
2023/02/10 09:47:18;;;;;;;7.93;5.20;;;;;;;;;;10366040;28;20033;-57
2023/02/10 09:52:49;;;;;;;8.77;6.22;;;;;;;;;;10357159;28;20058;-58
2023/02/10 09:58:00;;;;;;;9.88;5.85;;;;;;;;;;10366020;28;20097;-57
2023/02/10 10:03:06;;;;;;;7.78;5.32;;;;;;;;;;10364879;28;20350;-57
2023/02/10 10:08:23;;;;;;;7.97;5.40;;;;;;;;;;10372571;28;20030;-57
2023/02/10 10:13:27;;;;;;;12.40;6.07;;;;;;;;;;10371390;28;20030;-58
2023/02/10 10:18:39;;;;;;;8.15;5.57;;;;;;;;;;10373071;28;20060;-57
2023/02/10 10:24:03;;;;;;;8.98;5.30;;;;;;;;;;10364855;28;20021;-57
2023/02/10 10:29:27;;;;;;;9.65;5.25;;;;;;;;;;10371681;28;20037;-57
2023/02/10 10:34:31;;;;;;;8.85;5.28;;;;;;;;;;10372953;23;20026;-65
2023/02/10 10:39:40;;;;;;;7.32;5.28;;;;;;;;;;10387497;28;20121;-61
2023/02/10 10:44:42;;;;;;;8.02;4.97;;;;;;;;;;10387397;28;20037;-60
2023/02/10 10:49:43;;;;;;;7.93;5.20;;;;;;;;;;10386987;28;20449;-64
2023/02/10 10:54:43;;;;;;;9.32;5.40;;;;;;;;;;10386690;28;20030;-64
2023/02/10 10:59:52;;;;;;;7.15;5.57;;;;;;;;;;10371443;28;20493;-62
2023/02/10 11:05:09;;;;;;;8.43;5.35;;;;;;;;;;10370252;28;20022;-64
2023/02/10 11:10:42;;;;;;;7.78;5.55;;;;;;;;;;10366095;28;20034;-61
2023/02/10 11:15:45;;;;;;;6.32;5.28;;;;;;;;;;10366823;28;20049;-61
2023/02/10 11:20:59;;;;;;;10.30;5.35;;;;;;;;;;10369555;28;20026;-61
2023/02/10 11:26:06;;;;;;;8.90;5.43;;;;;;;;;;10370605;28;20032;-60
2023/02/10 11:31:34;;;;;;;6.78;5.13;;;;;;;;;;10368944;28;20112;-61
2023/02/10 11:36:40;;;;;;;10.15;4.97;;;;;;;;;;10368805;28;20506;-61
2023/02/10 11:41:41;;;;;;;7.15;5.22;;;;;;;;;;10370198;28;20057;-60
2023/02/10 11:46:42;;;;;;;8.50;5.07;;;;;;;;;;10368854;28;20371;-60
2023/02/10 11:51:53;;;;;;;6.80;5.18;;;;;;;;;;10369680;28;20025;-61
2023/02/10 12:03:16;;;;;;;6.70;4.82;;;;;;;;;;10363908;28;20033;-61
2023/02/10 12:08:39;;;;;;;7.68;5.10;;;;;;;;;;10367605;28;20038;-61
2023/02/10 12:14:16;;;;;;;5.18;4.53;;;;;;;;;;10367815;28;20022;-61
2023/02/10 12:20:02;;;;;;;8.57;5.40;;;;;;;;;;10367769;28;20559;-61
2023/02/10 12:25:37;;;;;;;6.43;4.93;;;;;;;;;;10367000;28;20018;-61
2023/02/10 12:30:52;;;;;;;8.77;5.10;;;;;;;;;;10368066;28;20030;-60
2023/02/10 12:36:04;;;;;;;6.50;4.95;;;;;;;;;;10368169;28;20054;-60
2023/02/10 12:41:17;;;;;;;6.95;4.88;;;;;;;;;;10362926;28;20029;-60
2023/02/10 12:46:40;;;;;;;8.45;5.35;;;;;;;;;;10368016;28;20037;-61
2023/02/10 12:52:06;;;;;;;6.82;4.60;;;;;;;;;;10365280;28;20105;-61
2023/02/10 12:57:20;;;;;;;7.22;5.07;;;;;;;;;;10360612;28;20033;-61
2023/02/10 13:02:27;;;;;;;7.82;4.95;;;;;;;;;;10366142;28;20034;-63
2023/02/10 13:07:57;;;;;;;12.07;5.15;;;;;;;;;;10365471;28;20537;-61
2023/02/10 13:13:15;;;;;;;7.13;4.90;;;;;;;;;;10365525;28;20537;-60
2023/02/10 13:18:23;;;;;;;5.65;5.00;;;;;;;;;;10359788;28;20049;-61
2023/02/10 13:23:52;;;;;;;7.18;5.20;;;;;;;;;;10365227;28;20029;-61
2023/02/10 13:29:21;;;;;;;;;;;;;;;;;;10366958;28;20026;-61
2023/02/10 13:34:31;;;;;;;8.90;5.03;;;;;;;;;;10361491;28;20008;-62
2023/02/10 13:39:33;;;;;;;6.07;4.82;;;;;;;;;;10367655;28;20040;-63
2023/02/10 13:44:40;;;;;;;6.63;4.72;;;;;;;;;;10370754;28;20036;-61
2023/02/10 13:49:54;;;;;;;10.40;5.43;;;;;;;;;;10372110;28;20034;-60
2023/02/10 13:55:10;;;;;;;7.85;4.72;;;;;;;;;;10367518;28;20029;-60
2023/02/10 14:00:13;;;;;;;8.93;4.90;;;;;;;;;;10369125;28;20105;-61
2023/02/10 14:05:35;;;;;;;6.13;4.90;;;;;;;;;;10372518;28;20088;-61
2023/02/10 14:10:36;;;;;;;6.15;4.32;;;;;;;;;;10362969;28;20029;-61
2023/02/10 14:15:39;;;;;;;5.55;4.13;;;;;;;;;;10373885;28;20025;-61
2023/02/10 14:20:45;;;;;;;6.45;4.38;;;;;;;;;;10373005;28;20029;-60
2023/02/10 14:25:48;;;;;;;5.82;4.25;;;;;;;;;;10371655;28;20026;-61
2023/02/10 14:30:57;;;;;;;5.75;4.13;;;;;;;;;;10372677;28;20149;-60
2023/02/10 14:36:01;;;;;;;6.45;4.55;;;;;;;;;;10368728;28;20041;-61
2023/02/10 14:41:03;;;;;;;4.75;4.00;;;;;;;;;;10372869;28;20105;-60
2023/02/10 14:46:03;;;;;;;4.88;3.95;;;;;;;;;;10371337;28;20026;-62
2023/02/10 14:51:17;;;;;;;6.47;4.00;;;;;;;;;;10369933;28;20088;-62
2023/02/10 14:56:27;;;;;;;6.03;4.00;;;;;;;;;;10363601;28;20088;-61
2023/02/10 15:01:34;;;;;;;5.47;3.92;;;;;;;;;;10367384;28;20092;-61
2023/02/10 15:06:35;;;;;;;4.57;4.07;;;;;;;;;;10368976;28;20120;-63
2023/02/10 15:17:11;;;;;;;10.20;4.28;;;;;;;;;;10369256;28;20034;-61
2023/02/10 15:22:44;;;;;;;5.13;4.35;;;;;;;;;;10368655;28;20359;-60
2023/02/10 15:27:45;;;;;;;5.95;4.20;;;;;;;;;;10362027;28;20126;-61
2023/02/10 15:32:58;;;;;;;10.07;4.78;;;;;;;;;;10367820;28;20377;-60
2023/02/10 15:38:03;;;;;;;11.38;4.35;;;;;;;;;;10368687;28;20487;-61
2023/02/10 15:43:26;;;;;;;12.77;4.50;;;;;;;;;;10363766;28;20109;-61
2023/02/10 15:48:26;;;;;;;10.20;4.70;;;;;;;;;;10368840;28;20377;-61
2023/02/10 15:53:27;;;;;;;8.80;4.53;;;;;;;;;;10367190;28;20034;-61
2023/02/10 15:58:28;;;;;;;12.95;5.10;;;;;;;;;;10368838;28;20030;-61
2023/02/10 16:03:28;;;;;;;10.77;5.25;;;;;;;;;;10367247;28;20145;-62
2023/02/10 16:08:29;;;;;;;13.73;4.72;;;;;;;;;;10368535;28;20026;-61
2023/02/10 16:13:30;;;;;;;10.90;4.55;;;;;;;;;;10366719;28;20037;-61
2023/02/10 16:18:30;;;;;;;19.38;4.70;;;;;;;;;;10368102;28;20065;-61
2023/02/10 16:23:31;;;;;;;17.52;5.45;;;;;;;;;;10365991;28;20029;-61
2023/02/10 16:28:32;;;;;;;14.32;4.18;;;;;;;;;;10366782;28;20026;-61
2023/02/10 16:33:35;;;;;;;12.32;4.82;;;;;;;;;;10366674;28;20386;-62
2023/02/10 16:38:35;;;;;;;12.45;4.70;;;;;;;;;;10364481;28;20046;-60
2023/02/10 16:43:36;;;;;;;12.75;4.43;;;;;;;;;;10367521;28;20026;-61
2023/02/10 16:48:36;;;;;;;21.15;5.40;;;;;;;;;;10367407;28;20226;-61
2023/02/10 16:53:37;;;;;;;12.77;4.68;;;;;;;;;;10367052;28;20056;-61
2023/02/10 16:58:38;;;;;;;9.15;4.40;;;;;;;;;;10366783;28;20029;-61
2023/02/10 17:03:39;;;;;;;10.23;4.03;;;;;;;;;;10366849;28;20466;-61
2023/02/10 17:08:39;;;;;;;8.57;4.30;;;;;;;;;;10365641;28;20021;-61
2023/02/10 17:13:40;;;;;;;8.70;4.18;;;;;;;;;;10355776;28;20022;-64
2023/02/10 17:18:41;;;;;;;10.45;3.88;;;;;;;;;;10366707;28;20381;-61
2023/02/10 17:23:41;;;;;;;9.35;4.32;;;;;;;;;;10360078;28;20382;-62
2023/02/10 17:28:42;;;;;;;11.43;4.53;;;;;;;;;;10362033;28;20042;-61
2023/02/10 17:33:48;;;;;;;7.75;4.57;;;;;;;;;;10360623;28;20030;-62
2023/02/10 17:38:50;;;;;;;8.32;4.20;;;;;;;;;;10365910;28;20050;-61
2023/02/10 17:43:54;;;;;;;9.65;4.13;;;;;;;;;;10365751;28;20032;-61
2023/02/10 17:48:56;;;;;;;8.93;4.28;;;;;;;;;;10361400;28;20056;-64
2023/02/10 17:53:56;;;;;;;8.13;4.10;;;;;;;;;;10364986;28;20026;-61
2023/02/10 17:58:57;;;;;;;5.85;3.85;;;;;;;;;;10364588;28;20034;-61
2023/02/10 18:03:58;;;;;;;9.35;4.80;;;;;;;;;;10365350;28;20025;-61
2023/02/10 18:08:59;;;;;;;9.95;5.32;;;;;;;;;;10362517;28;20606;-61
2023/02/10 18:14:01;;;;;;;7.13;4.35;;;;;;;;;;10362736;28;20049;-61
2023/02/10 18:19:02;;;;;;;6.45;4.47;;;;;;;;;;10364395;28;20034;-61
2023/02/10 18:24:03;;;;;;;7.47;4.70;;;;;;;;;;10365104;28;20041;-61
2023/02/10 18:29:03;;;;;;;6.50;4.53;;;;;;;;;;10369494;28;20038;-62
2023/02/10 18:34:05;;;;;;;13.32;4.60;;;;;;;;;;10370826;28;20034;-61
2023/02/10 18:39:06;;;;;;;13.18;4.82;;;;;;;;;;10367338;28;20452;-61
2023/02/10 18:44:07;;;;;;;13.23;4.78;;;;;;;;;;10361853;28;20033;-60
2023/02/10 18:49:08;;;;;;;10.70;4.43;;;;;;;;;;10368115;28;20489;-62
2023/02/10 18:54:08;;;;;;;11.20;5.43;;;;;;;;;;10369983;28;20033;-63
2023/02/10 18:59:09;;;;;;;10.57;5.32;;;;;;;;;;10370571;28;20033;-61
2023/02/10 19:04:09;;;;;;;5.95;4.32;;;;;;;;;;10371889;28;20022;-60
2023/02/10 19:09:10;;;;;;;6.70;4.55;;;;;;;;;;10384510;28;20026;-66
2023/02/10 19:14:11;;;;;;;12.57;5.32;;;;;;;;;;10370966;28;20041;-62
2023/02/10 19:19:11;;;;;;;7.50;4.50;;;;;;;;;;10370087;28;20473;-61
2023/02/10 19:24:13;;;;;;;19.95;4.70;;;;;;;;;;10369090;28;20531;-60
2023/02/10 19:29:14;;;;;;;7.78;5.32;;;;;;;;;;10366783;28;20089;-61
2023/02/10 19:34:14;;;;;;;9.50;4.80;;;;;;;;;;10369284;28;20037;-61
2023/02/10 19:39:15;;;;;;;26.13;5.70;;;;;;;;;;10366117;28;20042;-62
2023/02/10 19:44:21;;;;;;;17.75;7.28;;;;;;;;;;10365860;28;20097;-62
2023/02/10 19:49:22;;;;;;;15.82;7.20;;;;;;;;;;10382200;28;20058;-61
2023/02/10 19:54:23;;;;;;;12.23;6.57;;;;;;;;;;10368236;28;20042;-61
2023/02/10 19:59:24;;;;;;;17.15;6.90;;;;;;;;;;10362643;28;20426;-62
2023/02/10 20:04:25;;;;;;;14.93;6.70;;;;;;;;;;10364533;28;20026;-61
2023/02/10 20:09:26;;;;;;;14.20;7.10;;;;;;;;;;10364382;28;20034;-61
2023/02/10 20:14:26;;;;;;;13.82;6.53;;;;;;;;;;10368395;28;20034;-62
2023/02/10 20:19:27;;;;;;;12.40;7.07;;;;;;;;;;10368546;28;20032;-62
2023/02/10 20:24:28;;;;;;;13.32;7.15;;;;;;;;;;10361037;28;20144;-64
2023/02/10 20:29:28;;;;;;;20.33;7.30;;;;;;;;;;10360594;28;20478;-61
2023/02/10 20:34:29;;;;;;;15.43;7.35;;;;;;;;;;10367555;28;20041;-61
2023/02/10 20:39:29;;;;;;;22.92;8.13;;;;;;;;;;10366794;28;20170;-60
2023/02/10 20:44:31;;;;;;;22.17;7.75;;;;;;;;;;10364039;28;20038;-61
2023/02/10 20:49:32;;;;;;;11.75;6.78;;;;;;;;;;10366745;28;20030;-61
2023/02/10 20:54:32;;;;;;;14.30;7.10;;;;;;;;;;10367058;28;20037;-61
2023/02/10 20:59:33;;;;;;;16.65;7.07;;;;;;;;;;10367068;28;20021;-61
2023/02/10 21:04:33;;;;;;;15.07;7.20;;;;;;;;;;10360628;28;20033;-61
2023/02/10 21:09:35;;;;;;;11.18;6.85;;;;;;;;;;10364183;28;20014;-61
2023/02/10 21:14:35;;;;;;;15.68;6.88;;;;;;;;;;10365337;28;20036;-61
2023/02/10 21:19:36;;;;;;;14.07;6.50;;;;;;;;;;10364248;28;20033;-60
2023/02/10 21:24:36;;;;;;;14.00;5.88;;;;;;;;;;10362346;28;20042;-61
2023/02/10 21:29:38;;;;;;;12.35;6.00;;;;;;;;;;10358197;28;20045;-61
2023/02/10 21:34:38;;;;;;;14.45;6.45;;;;;;;;;;10365071;28;20076;-61
2023/02/10 21:39:39;;;;;;;14.18;6.40;;;;;;;;;;10365814;28;20034;-61
2023/02/10 21:44:40;;;;;;;11.25;5.93;;;;;;;;;;10361101;28;20034;-70
2023/02/10 21:49:40;;;;;;;18.48;6.85;;;;;;;;;;10366341;28;20104;-61
2023/02/10 21:54:41;;;;;;;12.80;6.53;;;;;;;;;;10365712;28;20084;-69
2023/02/10 21:59:42;;;;;;;12.50;5.57;;;;;;;;;;10361897;28;20022;-65
2023/02/10 22:04:43;;;;;;;13.23;6.75;;;;;;;;;;10356094;28;20027;-61
2023/02/10 22:09:43;;;;;;;10.13;6.35;;;;;;;;;;10368296;28;20491;-61
2023/02/10 22:14:44;;;;;;;12.88;6.30;;;;;;;;;;10372169;28;20052;-70
2023/02/10 22:19:44;;;;;;;8.80;5.85;;;;;;;;;;10369620;28;20021;-62
2023/02/10 22:24:45;;;;;;;11.00;5.90;;;;;;;;;;10373158;28;20022;-69
2023/02/10 22:29:45;;;;;;;10.93;6.03;;;;;;;;;;10372969;28;20026;-70
2023/02/10 22:34:46;;;;;;;10.07;6.50;;;;;;;;;;10367912;28;20072;-66
2023/02/10 22:39:47;;;;;;;14.75;6.45;;;;;;;;;;10371703;28;20118;-66
2023/02/10 22:44:49;;;;;;;11.02;6.47;;;;;;;;;;10371612;28;20033;-69
2023/02/10 22:49:51;;;;;;;11.52;6.32;;;;;;;;;;10372425;28;20478;-67
2023/02/10 22:54:52;;;;;;;13.05;7.13;;;;;;;;;;10371224;28;20485;-67
2023/02/10 22:59:52;;;;;;;16.63;7.68;;;;;;;;;;10369833;28;20030;-68
2023/02/10 23:04:53;;;;;;;10.57;6.90;;;;;;;;;;10371145;28;20528;-64
2023/02/10 23:09:53;;;;;;;10.70;6.55;;;;;;;;;;10365614;28;20497;-67
2023/02/10 23:14:54;;;;;;;13.18;7.25;;;;;;;;;;10370304;28;20493;-65
2023/02/10 23:19:54;;;;;;;9.95;6.53;;;;;;;;;;10371433;28;20374;-64
2023/02/10 23:24:55;;;;;;;17.20;7.00;;;;;;;;;;10370836;28;20030;-64
2023/02/10 23:29:57;;;;;;;13.60;6.65;;;;;;;;;;10370824;28;20029;-64
2023/02/10 23:34:57;;;;;;;8.68;6.22;;;;;;;;;;10370105;28;20417;-65
2023/02/10 23:39:58;;;;;;;13.15;7.20;;;;;;;;;;10370445;28;20036;-64
2023/02/10 23:44:58;;;;;;;13.90;6.82;;;;;;;;;;10370656;28;20022;-65
2023/02/10 23:49:59;;;;;;;12.65;6.45;;;;;;;;;;10369933;28;20022;-65
2023/02/10 23:55:00;;;;;;;11.65;6.72;;;;;;;;;;10369659;28;20034;-65
